createdAt,value
2018-06-15T00:04:13.058Z,61.70
2018-06-15T00:07:46.267Z,62.10
2018-06-15T00:11:19.490Z,62.50
2018-06-15T00:14:52.693Z,63.00
2018-06-15T00:25:31.846Z,63.90
2018-06-15T00:29:05.066Z,64.30
2018-06-15T00:32:38.300Z,64.50
2018-06-15T00:36:11.506Z,64.90
2018-06-15T00:39:44.703Z,65.00
2018-06-15T00:43:17.930Z,65.40
2018-06-15T00:46:51.147Z,65.90
2018-06-15T00:50:24.365Z,66.20
2018-06-15T00:53:57.688Z,66.60
2018-06-15T00:57:42.326Z,67.00
2018-06-15T01:01:15.532Z,67.10
2018-06-15T01:04:48.756Z,67.40
2018-06-15T01:08:21.967Z,67.50
2018-06-15T01:11:55.188Z,67.20
2018-06-15T01:15:28.440Z,67.20
2018-06-15T01:19:01.821Z,67.30
2018-06-15T01:22:35.038Z,67.40
2018-06-15T01:26:08.246Z,67.90
2018-06-15T01:29:41.459Z,67.40
2018-06-15T01:33:14.693Z,67.40
2018-06-15T01:36:47.955Z,67.40
2018-06-15T01:40:21.178Z,67.70
2018-06-15T01:43:54.386Z,67.80
2018-06-15T01:47:27.606Z,68.20
2018-06-15T01:51:00.804Z,68.40
2018-06-15T01:54:34.008Z,68.60
2018-06-15T01:58:07.254Z,68.70
2018-06-15T02:01:40.472Z,68.80
2018-06-15T02:05:13.687Z,69.70
2018-06-15T02:08:46.883Z,70.00
2018-06-15T02:12:20.091Z,70.20
2018-06-15T02:15:53.323Z,70.30
2018-06-15T02:19:26.534Z,69.90
2018-06-15T02:22:59.999Z,69.80
2018-06-15T02:26:33.207Z,69.90
2018-06-15T02:30:06.447Z,70.20
2018-06-15T02:33:39.639Z,70.50
2018-06-15T02:37:12.851Z,70.60
2018-06-15T02:40:46.074Z,70.60
2018-06-15T02:44:19.285Z,70.50
2018-06-15T02:47:52.507Z,70.40
2018-06-15T02:51:25.720Z,70.40
2018-06-15T02:54:58.967Z,70.50
2018-06-15T02:58:32.490Z,70.50
2018-06-15T03:02:05.976Z,70.30
2018-06-15T03:05:39.610Z,70.20
2018-06-15T03:09:12.819Z,70.00
2018-06-15T03:12:46.055Z,70.10
2018-06-15T03:16:19.291Z,70.20
2018-06-15T03:19:52.562Z,70.20
2018-06-15T03:23:25.773Z,70.30
2018-06-15T03:26:59.043Z,70.40
2018-06-15T03:30:32.251Z,70.40
2018-06-15T03:34:05.459Z,70.40
2018-06-15T03:37:38.685Z,70.40
2018-06-15T03:41:11.874Z,70.40
2018-06-15T03:44:45.101Z,70.30
2018-06-15T03:48:18.319Z,70.20
2018-06-15T03:51:51.526Z,70.20
2018-06-15T03:58:57.722Z,70.30
2018-06-15T04:02:30.924Z,70.10
2018-06-15T04:06:04.131Z,69.70
2018-06-15T04:09:37.523Z,69.40
2018-06-15T04:13:10.790Z,69.00
2018-06-15T04:16:43.969Z,68.90
2018-06-15T04:20:17.207Z,68.60
2018-06-15T04:23:50.462Z,68.60
2018-06-15T04:27:23.672Z,68.50
2018-06-15T04:30:56.950Z,68.30
2018-06-15T04:34:30.291Z,68.30
2018-06-15T04:38:03.560Z,68.00
2018-06-15T04:41:36.870Z,67.70
2018-06-15T04:45:10.114Z,67.50
2018-06-15T04:48:43.398Z,67.50
2018-06-15T04:52:16.619Z,67.70
2018-06-15T04:59:22.808Z,68.00
2018-06-15T05:02:56.024Z,67.60
2018-06-15T05:06:29.338Z,67.70
2018-06-15T05:10:02.566Z,67.40
2018-06-15T05:13:35.784Z,67.00
2018-06-15T05:17:09.050Z,66.80
2018-06-15T05:20:42.256Z,66.60
2018-06-15T05:24:15.485Z,66.40
2018-06-15T05:27:48.705Z,66.10
2018-06-15T05:38:28.182Z,64.90
2018-06-15T05:42:01.421Z,64.50
2018-06-15T05:45:34.646Z,63.80
2018-06-15T05:49:07.938Z,63.40
2018-06-15T05:52:41.180Z,62.90
2018-06-15T05:56:14.399Z,62.40
2018-06-15T05:59:47.629Z,61.70
2018-06-15T06:03:20.999Z,61.30
2018-06-15T06:10:27.262Z,60.00
2018-06-15T06:14:00.479Z,60.00
2018-06-15T06:17:33.711Z,59.70
2018-06-15T06:21:06.943Z,58.50
2018-06-15T06:24:40.175Z,58.80
2018-06-15T06:28:13.447Z,58.90
2018-06-15T06:31:46.666Z,59.00
2018-06-15T06:35:20.083Z,59.30
2018-06-15T06:38:53.375Z,59.00
2018-06-15T06:42:26.596Z,58.70
2018-06-15T06:45:59.851Z,58.20
2018-06-15T06:49:33.063Z,57.60
2018-06-15T06:53:06.264Z,56.90
2018-06-15T06:56:39.475Z,56.90
2018-06-15T07:00:12.992Z,57.20
2018-06-15T07:03:46.260Z,56.40
2018-06-15T07:07:19.481Z,56.00
2018-06-15T07:10:52.701Z,55.50
2018-06-15T07:14:25.922Z,55.10
2018-06-15T07:17:59.139Z,54.70
2018-06-15T07:21:32.366Z,54.50
2018-06-15T07:25:05.588Z,54.20
2018-06-15T07:28:38.803Z,53.90
2018-06-15T07:32:12.015Z,53.50
2018-06-15T07:35:45.275Z,52.70
2018-06-15T07:39:18.510Z,52.40
2018-06-15T07:42:51.727Z,51.70
2018-06-15T07:46:24.992Z,51.30
2018-06-15T07:49:58.197Z,51.20
2018-06-15T07:53:31.498Z,50.80
2018-06-15T07:57:04.732Z,50.10
2018-06-15T08:00:37.967Z,49.80
2018-06-15T08:04:12.204Z,49.40
2018-06-15T08:07:45.419Z,49.00
2018-06-15T08:11:18.639Z,47.90
2018-06-15T08:14:51.855Z,46.30
2018-06-15T08:18:25.084Z,44.90
2018-06-15T08:21:58.328Z,44.50
2018-06-15T08:25:31.617Z,43.20
2018-06-15T08:29:04.863Z,43.70
2018-06-15T08:32:38.081Z,43.80
2018-06-15T08:36:11.304Z,43.60
2018-06-15T08:43:17.474Z,43.30
2018-06-15T08:46:50.683Z,42.90
2018-06-15T08:50:23.940Z,42.20
2018-06-15T08:53:57.161Z,41.20
2018-06-15T08:57:30.386Z,40.30
2018-06-15T09:01:03.627Z,40.60
2018-06-15T09:04:36.830Z,40.60
2018-06-15T09:08:10.027Z,39.30
2018-06-15T09:11:43.259Z,40.00
2018-06-15T09:15:16.511Z,40.50
2018-06-15T09:18:49.745Z,40.60
2018-06-15T09:22:22.972Z,40.60
2018-06-15T09:25:56.200Z,40.40
2018-06-15T09:29:29.427Z,40.90
2018-06-15T09:33:02.670Z,40.00
2018-06-15T09:36:35.887Z,40.00
2018-06-15T09:40:09.280Z,39.00
2018-06-15T09:43:42.498Z,39.00
2018-06-15T09:47:16.756Z,38.40
2018-06-15T09:50:49.983Z,38.00
2018-06-15T09:54:23.231Z,37.90
2018-06-15T09:57:56.463Z,37.20
2018-06-15T10:01:29.727Z,37.00
2018-06-15T10:05:02.964Z,37.30
2018-06-15T10:08:36.728Z,37.40
2018-06-15T10:12:09.944Z,37.70
2018-06-15T10:15:43.835Z,37.40
2018-06-15T10:19:17.078Z,37.50
2018-06-15T10:22:50.305Z,37.60
2018-06-15T10:26:23.552Z,37.80
2018-06-15T10:29:56.783Z,37.80
2018-06-15T10:33:30.005Z,37.40
2018-06-15T10:37:03.230Z,37.10
2018-06-15T10:44:09.474Z,36.60
2018-06-15T10:47:42.679Z,36.50
2018-06-15T10:51:15.924Z,36.10
2018-06-15T10:54:49.507Z,35.70
2018-06-15T10:58:22.747Z,35.20
2018-06-15T11:01:55.949Z,35.10
2018-06-15T11:05:29.170Z,34.80
2018-06-15T11:09:02.387Z,34.90
2018-06-15T11:12:35.660Z,34.90
2018-06-15T11:16:08.884Z,35.20
2018-06-15T11:19:42.114Z,34.90
2018-06-15T11:23:15.348Z,34.50
2018-06-15T11:26:48.586Z,34.80
2018-06-15T11:30:21.816Z,34.90
2018-06-15T11:37:28.008Z,34.30
2018-06-15T11:41:01.248Z,34.40
2018-06-15T11:44:34.489Z,34.10
2018-06-15T11:48:07.740Z,34.10
2018-06-15T11:51:40.953Z,33.80
2018-06-15T11:55:14.173Z,33.60
2018-06-15T11:58:47.388Z,33.70
2018-06-15T12:02:20.601Z,33.80
2018-06-15T12:09:26.781Z,34.30
2018-06-15T12:13:00.012Z,34.50
2018-06-15T12:16:33.248Z,34.00
2018-06-15T12:20:06.720Z,34.20
2018-06-15T12:23:39.926Z,33.80
2018-06-15T12:27:13.240Z,34.10
2018-06-15T12:30:46.447Z,34.40
2018-06-15T12:34:19.711Z,34.60
2018-06-15T12:37:52.955Z,34.70
2018-06-15T12:41:26.160Z,34.50
2018-06-15T12:44:59.377Z,35.30
2018-06-15T12:48:32.582Z,35.20
2018-06-15T12:52:06.048Z,35.30
2018-06-15T12:55:39.266Z,35.40
2018-06-15T12:59:12.550Z,35.40
2018-06-15T13:02:45.767Z,35.60
2018-06-15T13:06:18.955Z,35.40
2018-06-15T13:09:52.171Z,35.30
2018-06-15T13:13:25.396Z,35.40
2018-06-15T13:20:32.428Z,35.10
2018-06-15T13:24:05.680Z,35.00
2018-06-15T13:27:38.901Z,35.00
2018-06-15T13:31:12.127Z,35.30
2018-06-15T13:34:45.335Z,35.50
2018-06-15T13:38:18.591Z,35.50
2018-06-15T13:41:51.816Z,35.20
2018-06-15T13:45:25.027Z,34.90
2018-06-15T13:48:58.463Z,35.30
2018-06-15T13:52:31.679Z,35.80
2018-06-15T13:56:04.970Z,35.50
2018-06-15T13:59:38.180Z,35.40
2018-06-15T14:03:11.727Z,35.30
2018-06-15T14:06:44.951Z,34.50
2018-06-15T14:10:18.159Z,33.60
2018-06-15T14:13:51.394Z,32.80
2018-06-15T14:17:24.635Z,32.30
2018-06-15T14:20:57.865Z,31.80
2018-06-15T14:24:31.069Z,31.70
2018-06-15T14:28:04.288Z,31.50
2018-06-15T14:31:37.517Z,32.10
2018-06-15T14:35:10.732Z,32.10
2018-06-15T14:38:43.957Z,32.30
2018-06-15T14:42:17.187Z,32.20
2018-06-15T14:45:50.425Z,32.30
2018-06-15T14:49:23.643Z,32.30
2018-06-15T14:52:56.897Z,31.90
2018-06-15T14:56:30.664Z,32.50
2018-06-15T15:00:03.904Z,33.10
2018-06-15T15:03:37.112Z,32.70
2018-06-15T15:10:44.077Z,33.10
2018-06-15T15:17:50.255Z,33.80
2018-06-15T15:21:23.646Z,31.80
2018-06-15T15:24:56.895Z,31.10
2018-06-15T15:28:30.099Z,31.80
2018-06-15T15:32:03.324Z,31.00
2018-06-15T15:35:36.553Z,30.60
2018-06-15T15:39:10.740Z,30.10
2018-06-15T15:49:49.983Z,29.80
2018-06-15T15:53:23.238Z,30.00
2018-06-15T15:56:56.486Z,30.00
2018-06-15T16:04:02.779Z,29.50
2018-06-15T16:07:36.001Z,29.00
2018-06-15T16:11:09.299Z,28.50
2018-06-15T16:14:42.533Z,28.70
2018-06-15T16:18:15.771Z,28.80
2018-06-15T16:21:49.023Z,29.00
2018-06-15T16:25:22.311Z,29.50
2018-06-15T16:32:28.512Z,30.70
2018-06-15T16:36:01.788Z,31.50
2018-06-15T16:39:35.007Z,31.60
2018-06-15T16:46:41.227Z,32.50
2018-06-15T16:50:14.589Z,32.30
2018-06-15T16:53:47.823Z,32.20
2018-06-15T16:57:21.056Z,32.60
2018-06-15T17:00:54.287Z,33.10
2018-06-15T17:04:27.540Z,34.20
2018-06-15T17:08:00.772Z,34.40
2018-06-15T17:11:34.004Z,34.70
2018-06-15T17:15:07.227Z,34.90
2018-06-15T17:18:40.465Z,34.90
2018-06-15T17:22:13.816Z,35.10
2018-06-15T17:25:47.273Z,35.30
2018-06-15T17:29:21.292Z,35.40
2018-06-15T17:32:54.594Z,35.60
2018-06-15T17:36:31.302Z,35.80
2018-06-15T17:51:31.006Z,36.90
2018-06-15T17:55:16.947Z,37.20
2018-06-15T17:58:52.585Z,37.40
2018-06-15T18:02:29.061Z,37.60
2018-06-15T18:06:02.748Z,37.80
2018-06-15T18:13:23.131Z,39.20
2018-06-15T18:16:56.908Z,39.70
2018-06-15T18:20:32.810Z,40.00
2018-06-15T18:24:08.030Z,40.50
2018-06-15T18:27:44.378Z,40.80
2018-06-15T18:34:52.372Z,41.60
2018-06-15T18:38:27.536Z,41.90
2018-06-15T18:42:01.228Z,42.30
2018-06-15T18:49:08.512Z,43.50
2018-06-15T18:52:43.217Z,43.30
2018-06-15T18:59:49.594Z,43.50
2018-06-15T19:03:22.888Z,43.70
2018-06-15T19:06:56.183Z,43.90
2018-06-15T19:10:29.499Z,43.90
2018-06-15T19:17:42.940Z,44.30
2018-06-15T19:21:16.668Z,44.80
2018-06-15T19:28:23.001Z,46.30
2018-06-15T19:31:56.279Z,46.90
2018-06-15T19:39:02.836Z,48.00
2018-06-15T19:42:36.127Z,48.60
2018-06-15T19:46:09.364Z,49.20
2018-06-15T19:53:15.952Z,50.10
2018-06-15T19:56:49.272Z,50.60
2018-06-15T20:03:56.631Z,51.30
2018-06-15T20:07:29.966Z,51.70
2018-06-15T20:11:03.267Z,51.90
2018-06-15T20:14:36.499Z,52.20
2018-06-15T20:18:09.743Z,52.60
2018-06-15T20:21:43.105Z,52.80
2018-06-15T20:25:16.880Z,53.00
2018-06-15T20:28:50.403Z,53.20
2018-06-15T20:32:23.651Z,53.40
2018-06-15T20:35:56.883Z,53.50
2018-06-15T20:39:30.157Z,53.70
2018-06-15T20:43:03.547Z,53.70
2018-06-15T20:46:36.851Z,53.90
2018-06-15T20:50:10.258Z,54.20
2018-06-15T20:53:43.509Z,54.40
2018-06-15T20:57:16.740Z,54.50
2018-06-15T21:00:50.154Z,54.60
2018-06-15T21:04:23.646Z,54.70
2018-06-15T21:07:56.932Z,54.80
2018-06-15T21:11:30.179Z,54.90
2018-06-15T21:15:03.664Z,55.00
2018-06-15T21:18:37.018Z,55.20
2018-06-15T21:22:10.593Z,55.40
2018-06-15T21:25:43.886Z,55.50
2018-06-15T21:29:17.436Z,55.90
2018-06-15T21:32:50.833Z,56.20
2018-06-15T21:36:24.465Z,56.30
2018-06-15T21:39:57.700Z,56.30
2018-06-15T21:43:30.948Z,56.60
2018-06-15T21:47:04.367Z,56.70
2018-06-15T21:50:37.612Z,56.80
2018-06-15T21:54:10.846Z,57.10
2018-06-15T21:57:44.094Z,57.20
2018-06-15T22:01:17.340Z,57.40
2018-06-15T22:04:50.542Z,57.50
2018-06-15T22:08:24.075Z,57.50
2018-06-15T22:15:30.369Z,58.40
2018-06-15T22:22:36.612Z,58.20
2018-06-15T22:26:09.856Z,58.40
2018-06-15T22:33:16.049Z,59.00
2018-06-15T22:36:49.289Z,59.20
2018-06-15T22:40:22.548Z,59.30
2018-06-15T22:43:55.810Z,59.40
2018-06-15T22:47:29.056Z,59.50
2018-06-15T22:54:35.332Z,59.90
2018-06-15T22:58:08.559Z,60.00
2018-06-15T23:01:41.801Z,60.10
2018-06-15T23:05:15.078Z,60.40
2018-06-15T23:08:48.333Z,60.80
2018-06-15T23:12:21.575Z,61.00
2018-06-15T23:15:54.820Z,61.50
2018-06-15T23:19:28.082Z,61.80
2018-06-15T23:23:01.318Z,62.00
2018-06-15T23:26:34.571Z,62.30
2018-06-15T23:30:07.803Z,62.80
2018-06-15T23:33:41.039Z,62.90
2018-06-15T23:37:14.302Z,62.90
2018-06-15T23:40:47.579Z,63.20
2018-06-15T23:44:20.812Z,63.50
2018-06-15T23:47:54.049Z,63.80
2018-06-15T23:51:27.298Z,63.80
2018-06-15T23:55:00.541Z,64.00
2018-06-15T23:58:33.779Z,64.10
